sensor_id;sensor_type;location;lat;lon;timestamp;P1;durP1;ratioP1;P2;durP2;ratioP2
6348;SDS011;3207;42.648;23.406;2023-07-20T00:00:04;4.93;;;3.63;;
6348;SDS011;3207;42.648;23.406;2023-07-20T00:02:32;4.60;;;2.95;;
6348;SDS011;3207;42.648;23.406;2023-07-20T00:05:00;3.72;;;2.45;;
6348;SDS011;3207;42.648;23.406;2023-07-20T00:07:27;4.38;;;3.00;;
6348;SDS011;3207;42.648;23.406;2023-07-20T00:09:54;7.93;;;3.50;;
6348;SDS011;3207;42.648;23.406;2023-07-20T00:12:21;6.57;;;4.25;;
6348;SDS011;3207;42.648;23.406;2023-07-20T00:14:47;5.90;;;3.50;;
6348;SDS011;3207;42.648;23.406;2023-07-20T00:17:14;7.22;;;3.92;;
6348;SDS011;3207;42.648;23.406;2023-07-20T00:19:41;8.07;;;3.30;;
6348;SDS011;3207;42.648;23.406;2023-07-20T00:22:09;7.55;;;3.63;;
6348;SDS011;3207;42.648;23.406;2023-07-20T00:24:36;7.82;;;4.03;;
6348;SDS011;3207;42.648;23.406;2023-07-20T00:27:03;8.05;;;3.35;;
6348;SDS011;3207;42.648;23.406;2023-07-20T00:29:30;4.50;;;2.85;;
6348;SDS011;3207;42.648;23.406;2023-07-20T00:31:57;5.22;;;3.45;;
6348;SDS011;3207;42.648;23.406;2023-07-20T00:34:24;4.15;;;3.72;;
6348;SDS011;3207;42.648;23.406;2023-07-20T00:36:51;4.55;;;3.28;;
6348;SDS011;3207;42.648;23.406;2023-07-20T00:39:19;5.20;;;3.65;;
6348;SDS011;3207;42.648;23.406;2023-07-20T00:41:46;5.40;;;3.90;;
6348;SDS011;3207;42.648;23.406;2023-07-20T00:44:13;6.03;;;4.13;;
6348;SDS011;3207;42.648;23.406;2023-07-20T00:46:40;9.68;;;3.97;;
6348;SDS011;3207;42.648;23.406;2023-07-20T00:49:09;5.22;;;3.20;;
6348;SDS011;3207;42.648;23.406;2023-07-20T00:51:36;6.55;;;3.35;;
6348;SDS011;3207;42.648;23.406;2023-07-20T00:54:02;10.52;;;3.60;;
6348;SDS011;3207;42.648;23.406;2023-07-20T00:56:31;5.15;;;3.25;;
6348;SDS011;3207;42.648;23.406;2023-07-20T00:58:58;5.10;;;2.95;;
6348;SDS011;3207;42.648;23.406;2023-07-20T01:01:25;6.10;;;3.38;;
6348;SDS011;3207;42.648;23.406;2023-07-20T01:03:52;7.45;;;3.22;;
6348;SDS011;3207;42.648;23.406;2023-07-20T01:06:23;4.97;;;3.50;;
6348;SDS011;3207;42.648;23.406;2023-07-20T01:08:57;7.75;;;3.22;;
6348;SDS011;3207;42.648;23.406;2023-07-20T01:11:34;4.05;;;3.55;;
6348;SDS011;3207;42.648;23.406;2023-07-20T01:14:04;3.35;;;2.83;;
6348;SDS011;3207;42.648;23.406;2023-07-20T01:16:32;4.07;;;3.63;;
6348;SDS011;3207;42.648;23.406;2023-07-20T01:18:59;6.10;;;3.83;;
6348;SDS011;3207;42.648;23.406;2023-07-20T01:21:29;11.80;;;4.13;;
6348;SDS011;3207;42.648;23.406;2023-07-20T01:27:18;8.45;;;3.95;;
6348;SDS011;3207;42.648;23.406;2023-07-20T01:33:22;9.90;;;4.10;;
6348;SDS011;3207;42.648;23.406;2023-07-20T01:35:52;5.45;;;3.88;;
6348;SDS011;3207;42.648;23.406;2023-07-20T01:38:22;6.75;;;3.67;;
6348;SDS011;3207;42.648;23.406;2023-07-20T01:40:50;6.72;;;3.78;;
6348;SDS011;3207;42.648;23.406;2023-07-20T01:43:18;7.97;;;3.42;;
6348;SDS011;3207;42.648;23.406;2023-07-20T01:45:44;7.50;;;3.13;;
6348;SDS011;3207;42.648;23.406;2023-07-20T01:48:11;11.38;;;3.67;;
6348;SDS011;3207;42.648;23.406;2023-07-20T01:50:39;6.95;;;3.88;;
6348;SDS011;3207;42.648;23.406;2023-07-20T01:53:06;8.80;;;4.03;;
6348;SDS011;3207;42.648;23.406;2023-07-20T01:55:33;6.13;;;3.30;;
6348;SDS011;3207;42.648;23.406;2023-07-20T01:58:00;3.70;;;2.95;;
6348;SDS011;3207;42.648;23.406;2023-07-20T02:00:27;6.43;;;3.92;;
6348;SDS011;3207;42.648;23.406;2023-07-20T02:02:53;5.05;;;3.20;;
6348;SDS011;3207;42.648;23.406;2023-07-20T02:05:20;6.20;;;3.20;;
6348;SDS011;3207;42.648;23.406;2023-07-20T02:07:48;5.60;;;3.40;;
6348;SDS011;3207;42.648;23.406;2023-07-20T02:10:15;3.33;;;2.95;;
6348;SDS011;3207;42.648;23.406;2023-07-20T02:12:42;5.97;;;3.35;;
6348;SDS011;3207;42.648;23.406;2023-07-20T02:15:09;4.45;;;3.22;;
6348;SDS011;3207;42.648;23.406;2023-07-20T02:17:38;3.95;;;2.90;;
6348;SDS011;3207;42.648;23.406;2023-07-20T02:20:06;7.47;;;2.95;;
6348;SDS011;3207;42.648;23.406;2023-07-20T02:22:35;6.47;;;3.05;;
6348;SDS011;3207;42.648;23.406;2023-07-20T02:25:04;5.80;;;2.75;;
6348;SDS011;3207;42.648;23.406;2023-07-20T02:27:31;4.63;;;3.40;;
6348;SDS011;3207;42.648;23.406;2023-07-20T02:29:58;6.00;;;3.17;;
6348;SDS011;3207;42.648;23.406;2023-07-20T02:32:24;3.88;;;2.88;;
6348;SDS011;3207;42.648;23.406;2023-07-20T02:34:51;6.38;;;2.65;;
6348;SDS011;3207;42.648;23.406;2023-07-20T02:37:18;3.88;;;2.58;;
6348;SDS011;3207;42.648;23.406;2023-07-20T02:39:45;5.85;;;2.92;;
6348;SDS011;3207;42.648;23.406;2023-07-20T02:42:13;7.47;;;2.25;;
6348;SDS011;3207;42.648;23.406;2023-07-20T02:44:40;5.63;;;2.92;;
6348;SDS011;3207;42.648;23.406;2023-07-20T02:47:07;3.10;;;2.78;;
6348;SDS011;3207;42.648;23.406;2023-07-20T02:49:34;5.63;;;2.50;;
6348;SDS011;3207;42.648;23.406;2023-07-20T02:52:00;5.40;;;2.50;;
6348;SDS011;3207;42.648;23.406;2023-07-20T02:54:28;3.33;;;2.70;;
6348;SDS011;3207;42.648;23.406;2023-07-20T02:56:55;3.35;;;2.40;;
6348;SDS011;3207;42.648;23.406;2023-07-20T02:59:23;5.63;;;2.92;;
6348;SDS011;3207;42.648;23.406;2023-07-20T03:01:54;7.47;;;2.70;;
6348;SDS011;3207;42.648;23.406;2023-07-20T03:04:22;2.60;;;2.30;;
6348;SDS011;3207;42.648;23.406;2023-07-20T03:06:50;8.32;;;2.65;;
6348;SDS011;3207;42.648;23.406;2023-07-20T03:09:16;7.68;;;3.03;;
6348;SDS011;3207;42.648;23.406;2023-07-20T03:11:43;4.00;;;2.83;;
6348;SDS011;3207;42.648;23.406;2023-07-20T03:14:10;3.22;;;2.47;;
6348;SDS011;3207;42.648;23.406;2023-07-20T03:16:38;4.95;;;2.45;;
6348;SDS011;3207;42.648;23.406;2023-07-20T03:19:05;6.93;;;3.03;;
6348;SDS011;3207;42.648;23.406;2023-07-20T03:21:31;8.65;;;2.67;;
6348;SDS011;3207;42.648;23.406;2023-07-20T03:23:58;13.38;;;2.97;;
6348;SDS011;3207;42.648;23.406;2023-07-20T03:26:25;5.68;;;2.35;;
6348;SDS011;3207;42.648;23.406;2023-07-20T03:28:52;4.13;;;2.08;;
6348;SDS011;3207;42.648;23.406;2023-07-20T03:31:18;6.13;;;3.17;;
6348;SDS011;3207;42.648;23.406;2023-07-20T03:33:46;5.90;;;2.90;;
6348;SDS011;3207;42.648;23.406;2023-07-20T03:36:13;3.50;;;3.17;;
6348;SDS011;3207;42.648;23.406;2023-07-20T03:38:40;6.90;;;2.95;;
6348;SDS011;3207;42.648;23.406;2023-07-20T03:41:07;3.45;;;3.00;;
6348;SDS011;3207;42.648;23.406;2023-07-20T03:43:34;4.88;;;2.63;;
6348;SDS011;3207;42.648;23.406;2023-07-20T03:46:01;6.10;;;3.30;;
6348;SDS011;3207;42.648;23.406;2023-07-20T03:48:31;4.68;;;3.40;;
6348;SDS011;3207;42.648;23.406;2023-07-20T03:51:00;8.02;;;3.38;;
6348;SDS011;3207;42.648;23.406;2023-07-20T03:53:27;8.35;;;3.90;;
6348;SDS011;3207;42.648;23.406;2023-07-20T03:55:53;7.57;;;3.00;;
6348;SDS011;3207;42.648;23.406;2023-07-20T03:58:21;5.60;;;3.83;;
6348;SDS011;3207;42.648;23.406;2023-07-20T04:00:49;10.27;;;4.20;;
6348;SDS011;3207;42.648;23.406;2023-07-20T04:03:16;3.80;;;3.03;;
6348;SDS011;3207;42.648;23.406;2023-07-20T04:05:44;4.65;;;2.53;;
6348;SDS011;3207;42.648;23.406;2023-07-20T04:08:12;4.18;;;3.13;;
6348;SDS011;3207;42.648;23.406;2023-07-20T04:10:39;8.70;;;2.72;;
6348;SDS011;3207;42.648;23.406;2023-07-20T04:13:10;4.35;;;2.65;;
6348;SDS011;3207;42.648;23.406;2023-07-20T04:15:36;3.83;;;2.42;;
6348;SDS011;3207;42.648;23.406;2023-07-20T04:18:03;13.60;;;2.80;;
6348;SDS011;3207;42.648;23.406;2023-07-20T04:20:30;8.50;;;2.47;;
6348;SDS011;3207;42.648;23.406;2023-07-20T04:22:57;3.90;;;3.05;;
6348;SDS011;3207;42.648;23.406;2023-07-20T04:25:25;7.22;;;3.15;;
6348;SDS011;3207;42.648;23.406;2023-07-20T04:27:52;3.65;;;2.58;;
6348;SDS011;3207;42.648;23.406;2023-07-20T04:30:19;10.52;;;2.75;;
6348;SDS011;3207;42.648;23.406;2023-07-20T04:32:47;8.30;;;3.38;;
6348;SDS011;3207;42.648;23.406;2023-07-20T04:35:16;7.38;;;3.35;;
6348;SDS011;3207;42.648;23.406;2023-07-20T04:37:44;8.32;;;3.45;;
6348;SDS011;3207;42.648;23.406;2023-07-20T04:40:12;4.53;;;3.10;;
6348;SDS011;3207;42.648;23.406;2023-07-20T04:42:40;7.97;;;3.58;;
6348;SDS011;3207;42.648;23.406;2023-07-20T04:45:07;7.63;;;3.58;;
6348;SDS011;3207;42.648;23.406;2023-07-20T04:47:35;3.30;;;3.00;;
6348;SDS011;3207;42.648;23.406;2023-07-20T04:50:01;10.23;;;3.38;;
6348;SDS011;3207;42.648;23.406;2023-07-20T04:52:29;7.55;;;2.95;;
6348;SDS011;3207;42.648;23.406;2023-07-20T04:54:56;3.72;;;2.80;;
6348;SDS011;3207;42.648;23.406;2023-07-20T04:57:23;8.07;;;2.80;;
6348;SDS011;3207;42.648;23.406;2023-07-20T04:59:52;6.13;;;2.85;;
6348;SDS011;3207;42.648;23.406;2023-07-20T05:02:18;3.72;;;2.72;;
6348;SDS011;3207;42.648;23.406;2023-07-20T05:04:45;10.40;;;3.42;;
6348;SDS011;3207;42.648;23.406;2023-07-20T05:07:12;7.85;;;3.25;;
6348;SDS011;3207;42.648;23.406;2023-07-20T05:09:39;5.93;;;3.90;;
6348;SDS011;3207;42.648;23.406;2023-07-20T05:12:06;6.85;;;4.18;;
6348;SDS011;3207;42.648;23.406;2023-07-20T05:14:33;6.32;;;3.50;;
6348;SDS011;3207;42.648;23.406;2023-07-20T05:17:01;9.45;;;3.95;;
6348;SDS011;3207;42.648;23.406;2023-07-20T05:19:28;6.50;;;4.25;;
6348;SDS011;3207;42.648;23.406;2023-07-20T05:21:55;6.15;;;3.72;;
6348;SDS011;3207;42.648;23.406;2023-07-20T05:24:22;7.60;;;4.47;;
6348;SDS011;3207;42.648;23.406;2023-07-20T05:26:49;5.55;;;3.97;;
6348;SDS011;3207;42.648;23.406;2023-07-20T05:29:15;7.40;;;4.20;;
6348;SDS011;3207;42.648;23.406;2023-07-20T05:31:42;7.70;;;3.47;;
6348;SDS011;3207;42.648;23.406;2023-07-20T05:34:10;9.80;;;5.05;;
6348;SDS011;3207;42.648;23.406;2023-07-20T05:39:35;7.05;;;3.47;;
6348;SDS011;3207;42.648;23.406;2023-07-20T05:42:01;5.72;;;3.97;;
6348;SDS011;3207;42.648;23.406;2023-07-20T05:44:29;5.88;;;2.92;;
6348;SDS011;3207;42.648;23.406;2023-07-20T05:46:55;8.05;;;3.05;;
6348;SDS011;3207;42.648;23.406;2023-07-20T05:49:24;4.22;;;3.50;;
6348;SDS011;3207;42.648;23.406;2023-07-20T05:51:51;4.05;;;2.90;;
6348;SDS011;3207;42.648;23.406;2023-07-20T05:54:17;5.78;;;2.75;;
6348;SDS011;3207;42.648;23.406;2023-07-20T05:56:45;3.88;;;2.75;;
6348;SDS011;3207;42.648;23.406;2023-07-20T05:59:12;5.47;;;2.67;;
6348;SDS011;3207;42.648;23.406;2023-07-20T06:01:39;4.68;;;3.05;;
6348;SDS011;3207;42.648;23.406;2023-07-20T06:04:06;3.95;;;2.72;;
6348;SDS011;3207;42.648;23.406;2023-07-20T06:06:35;3.83;;;2.50;;
6348;SDS011;3207;42.648;23.406;2023-07-20T06:09:01;8.45;;;3.20;;
6348;SDS011;3207;42.648;23.406;2023-07-20T06:11:29;5.50;;;2.95;;
6348;SDS011;3207;42.648;23.406;2023-07-20T06:13:56;3.78;;;2.63;;
6348;SDS011;3207;42.648;23.406;2023-07-20T06:16:23;4.35;;;2.90;;
6348;SDS011;3207;42.648;23.406;2023-07-20T06:18:50;3.90;;;2.80;;
6348;SDS011;3207;42.648;23.406;2023-07-20T06:21:17;2.78;;;2.28;;
6348;SDS011;3207;42.648;23.406;2023-07-20T06:23:45;4.35;;;3.95;;
6348;SDS011;3207;42.648;23.406;2023-07-20T06:26:11;8.15;;;4.00;;
6348;SDS011;3207;42.648;23.406;2023-07-20T06:28:38;5.07;;;4.00;;
6348;SDS011;3207;42.648;23.406;2023-07-20T06:31:05;4.97;;;3.45;;
6348;SDS011;3207;42.648;23.406;2023-07-20T06:33:32;4.53;;;3.45;;
6348;SDS011;3207;42.648;23.406;2023-07-20T06:35:59;4.72;;;3.22;;
6348;SDS011;3207;42.648;23.406;2023-07-20T06:38:26;9.60;;;3.53;;
6348;SDS011;3207;42.648;23.406;2023-07-20T06:40:55;63.67;;;8.38;;
6348;SDS011;3207;42.648;23.406;2023-07-20T06:43:22;9.75;;;3.55;;
6348;SDS011;3207;42.648;23.406;2023-07-20T06:45:51;7.32;;;3.33;;
6348;SDS011;3207;42.648;23.406;2023-07-20T06:48:18;5.50;;;3.58;;
6348;SDS011;3207;42.648;23.406;2023-07-20T06:50:45;4.05;;;3.28;;
6348;SDS011;3207;42.648;23.406;2023-07-20T06:53:12;6.13;;;3.03;;
6348;SDS011;3207;42.648;23.406;2023-07-20T06:55:41;5.35;;;2.88;;
6348;SDS011;3207;42.648;23.406;2023-07-20T06:58:10;3.85;;;3.00;;
6348;SDS011;3207;42.648;23.406;2023-07-20T07:00:37;6.32;;;2.95;;
6348;SDS011;3207;42.648;23.406;2023-07-20T07:03:04;3.80;;;3.28;;
6348;SDS011;3207;42.648;23.406;2023-07-20T07:05:34;2.53;;;2.28;;
6348;SDS011;3207;42.648;23.406;2023-07-20T07:08:02;4.63;;;3.00;;
6348;SDS011;3207;42.648;23.406;2023-07-20T07:10:29;2.70;;;2.50;;
6348;SDS011;3207;42.648;23.406;2023-07-20T07:12:56;4.82;;;3.15;;
6348;SDS011;3207;42.648;23.406;2023-07-20T07:15:24;3.65;;;2.88;;
6348;SDS011;3207;42.648;23.406;2023-07-20T07:17:51;4.50;;;2.60;;
6348;SDS011;3207;42.648;23.406;2023-07-20T07:20:18;2.10;;;1.85;;
6348;SDS011;3207;42.648;23.406;2023-07-20T07:22:45;2.85;;;2.50;;
6348;SDS011;3207;42.648;23.406;2023-07-20T07:25:12;6.03;;;4.13;;
6348;SDS011;3207;42.648;23.406;2023-07-20T07:27:39;9.50;;;8.10;;
6348;SDS011;3207;42.648;23.406;2023-07-20T07:30:06;12.95;;;10.05;;
6348;SDS011;3207;42.648;23.406;2023-07-20T07:32:35;7.72;;;5.10;;
6348;SDS011;3207;42.648;23.406;2023-07-20T07:35:02;12.00;;;6.63;;
6348;SDS011;3207;42.648;23.406;2023-07-20T07:37:29;8.38;;;4.90;;
6348;SDS011;3207;42.648;23.406;2023-07-20T07:39:56;15.52;;;6.55;;
6348;SDS011;3207;42.648;23.406;2023-07-20T07:42:23;8.02;;;4.85;;
6348;SDS011;3207;42.648;23.406;2023-07-20T07:44:50;8.75;;;5.82;;
6348;SDS011;3207;42.648;23.406;2023-07-20T07:47:17;5.05;;;3.30;;
6348;SDS011;3207;42.648;23.406;2023-07-20T07:49:45;4.47;;;3.17;;
6348;SDS011;3207;42.648;23.406;2023-07-20T07:52:12;4.93;;;2.60;;
6348;SDS011;3207;42.648;23.406;2023-07-20T07:54:39;4.85;;;2.80;;
6348;SDS011;3207;42.648;23.406;2023-07-20T07:57:06;4.03;;;2.72;;
6348;SDS011;3207;42.648;23.406;2023-07-20T07:59:32;3.90;;;3.15;;
6348;SDS011;3207;42.648;23.406;2023-07-20T08:02:01;10.93;;;7.60;;
6348;SDS011;3207;42.648;23.406;2023-07-20T08:04:28;6.10;;;3.15;;
6348;SDS011;3207;42.648;23.406;2023-07-20T08:06:56;4.10;;;2.75;;
6348;SDS011;3207;42.648;23.406;2023-07-20T08:09:24;3.30;;;3.00;;
6348;SDS011;3207;42.648;23.406;2023-07-20T08:11:51;4.60;;;4.05;;
6348;SDS011;3207;42.648;23.406;2023-07-20T08:14:17;3.45;;;3.03;;
6348;SDS011;3207;42.648;23.406;2023-07-20T08:16:45;3.78;;;2.92;;
6348;SDS011;3207;42.648;23.406;2023-07-20T08:19:12;6.13;;;3.75;;
6348;SDS011;3207;42.648;23.406;2023-07-20T08:21:39;4.25;;;3.15;;
6348;SDS011;3207;42.648;23.406;2023-07-20T08:24:07;5.05;;;3.33;;
6348;SDS011;3207;42.648;23.406;2023-07-20T08:26:34;3.10;;;2.80;;
6348;SDS011;3207;42.648;23.406;2023-07-20T08:29:01;4.25;;;2.88;;
6348;SDS011;3207;42.648;23.406;2023-07-20T08:31:28;5.20;;;3.10;;
6348;SDS011;3207;42.648;23.406;2023-07-20T08:33:54;5.40;;;3.15;;
6348;SDS011;3207;42.648;23.406;2023-07-20T08:36:22;3.90;;;3.28;;
6348;SDS011;3207;42.648;23.406;2023-07-20T08:38:49;6.43;;;4.43;;
6348;SDS011;3207;42.648;23.406;2023-07-20T08:41:17;3.90;;;3.50;;
6348;SDS011;3207;42.648;23.406;2023-07-20T08:43:45;3.95;;;3.55;;
6348;SDS011;3207;42.648;23.406;2023-07-20T08:46:13;3.90;;;3.38;;
6348;SDS011;3207;42.648;23.406;2023-07-20T08:48:41;4.35;;;3.85;;
6348;SDS011;3207;42.648;23.406;2023-07-20T08:51:09;3.08;;;2.88;;
6348;SDS011;3207;42.648;23.406;2023-07-20T08:53:38;4.57;;;3.25;;
6348;SDS011;3207;42.648;23.406;2023-07-20T08:56:05;5.43;;;3.03;;
6348;SDS011;3207;42.648;23.406;2023-07-20T08:58:37;7.82;;;6.68;;
6348;SDS011;3207;42.648;23.406;2023-07-20T09:01:05;8.63;;;7.78;;
6348;SDS011;3207;42.648;23.406;2023-07-20T09:03:33;5.85;;;5.35;;
6348;SDS011;3207;42.648;23.406;2023-07-20T09:05:59;4.25;;;3.85;;
6348;SDS011;3207;42.648;23.406;2023-07-20T09:08:26;4.05;;;3.65;;
6348;SDS011;3207;42.648;23.406;2023-07-20T09:10:53;3.83;;;3.50;;
6348;SDS011;3207;42.648;23.406;2023-07-20T09:13:20;4.15;;;3.72;;
6348;SDS011;3207;42.648;23.406;2023-07-20T09:15:49;9.70;;;3.92;;
6348;SDS011;3207;42.648;23.406;2023-07-20T09:18:28;6.43;;;4.38;;
6348;SDS011;3207;42.648;23.406;2023-07-20T09:20:57;3.72;;;3.42;;
6348;SDS011;3207;42.648;23.406;2023-07-20T09:23:29;6.13;;;4.10;;
6348;SDS011;3207;42.648;23.406;2023-07-20T09:25:57;4.85;;;3.70;;
6348;SDS011;3207;42.648;23.406;2023-07-20T09:28:24;5.03;;;3.88;;
6348;SDS011;3207;42.648;23.406;2023-07-20T09:30:52;5.45;;;4.38;;
6348;SDS011;3207;42.648;23.406;2023-07-20T09:33:21;5.38;;;3.30;;
6348;SDS011;3207;42.648;23.406;2023-07-20T09:35:48;4.05;;;3.75;;
6348;SDS011;3207;42.648;23.406;2023-07-20T09:38:15;7.60;;;4.72;;
6348;SDS011;3207;42.648;23.406;2023-07-20T09:40:42;4.53;;;3.97;;
6348;SDS011;3207;42.648;23.406;2023-07-20T09:43:09;5.72;;;3.97;;
6348;SDS011;3207;42.648;23.406;2023-07-20T09:45:39;4.07;;;3.67;;
6348;SDS011;3207;42.648;23.406;2023-07-20T09:48:08;4.35;;;3.83;;
6348;SDS011;3207;42.648;23.406;2023-07-20T09:50:39;6.22;;;4.40;;
6348;SDS011;3207;42.648;23.406;2023-07-20T09:53:09;6.90;;;4.40;;
6348;SDS011;3207;42.648;23.406;2023-07-20T09:55:40;5.75;;;4.13;;
6348;SDS011;3207;42.648;23.406;2023-07-20T09:58:08;4.38;;;3.97;;
6348;SDS011;3207;42.648;23.406;2023-07-20T10:00:36;4.80;;;4.20;;
6348;SDS011;3207;42.648;23.406;2023-07-20T10:03:04;5.03;;;4.28;;
6348;SDS011;3207;42.648;23.406;2023-07-20T10:05:34;5.90;;;4.45;;
6348;SDS011;3207;42.648;23.406;2023-07-20T10:08:03;5.85;;;4.53;;
6348;SDS011;3207;42.648;23.406;2023-07-20T10:10:34;4.15;;;3.78;;
6348;SDS011;3207;42.648;23.406;2023-07-20T10:13:02;5.15;;;3.63;;
6348;SDS011;3207;42.648;23.406;2023-07-20T10:15:32;4.70;;;4.30;;
6348;SDS011;3207;42.648;23.406;2023-07-20T10:18:03;6.38;;;4.95;;
6348;SDS011;3207;42.648;23.406;2023-07-20T10:20:38;7.05;;;4.00;;
6348;SDS011;3207;42.648;23.406;2023-07-20T10:23:06;4.55;;;4.07;;
6348;SDS011;3207;42.648;23.406;2023-07-20T10:25:34;4.90;;;4.13;;
6348;SDS011;3207;42.648;23.406;2023-07-20T10:28:03;6.07;;;4.05;;
6348;SDS011;3207;42.648;23.406;2023-07-20T10:30:31;6.15;;;4.10;;
6348;SDS011;3207;42.648;23.406;2023-07-20T10:33:00;7.30;;;4.82;;
6348;SDS011;3207;42.648;23.406;2023-07-20T10:35:28;7.70;;;4.60;;
6348;SDS011;3207;42.648;23.406;2023-07-20T10:38:01;7.05;;;5.05;;
6348;SDS011;3207;42.648;23.406;2023-07-20T10:40:29;6.43;;;4.15;;
6348;SDS011;3207;42.648;23.406;2023-07-20T10:42:58;5.55;;;4.47;;
6348;SDS011;3207;42.648;23.406;2023-07-20T10:45:36;5.07;;;4.57;;
6348;SDS011;3207;42.648;23.406;2023-07-20T10:48:05;5.20;;;4.75;;
6348;SDS011;3207;42.648;23.406;2023-07-20T10:50:39;6.65;;;4.22;;
6348;SDS011;3207;42.648;23.406;2023-07-20T10:53:11;6.55;;;4.70;;
6348;SDS011;3207;42.648;23.406;2023-07-20T10:55:40;4.53;;;4.13;;
6348;SDS011;3207;42.648;23.406;2023-07-20T10:58:09;6.47;;;4.90;;
6348;SDS011;3207;42.648;23.406;2023-07-20T11:00:54;6.00;;;4.60;;
6348;SDS011;3207;42.648;23.406;2023-07-20T11:03:28;6.43;;;4.55;;
6348;SDS011;3207;42.648;23.406;2023-07-20T11:05:56;7.82;;;4.75;;
6348;SDS011;3207;42.648;23.406;2023-07-20T11:11:22;5.00;;;4.50;;
6348;SDS011;3207;42.648;23.406;2023-07-20T11:13:54;6.18;;;4.28;;
6348;SDS011;3207;42.648;23.406;2023-07-20T11:16:35;6.95;;;4.50;;
6348;SDS011;3207;42.648;23.406;2023-07-20T11:19:22;6.22;;;4.40;;
6348;SDS011;3207;42.648;23.406;2023-07-20T11:21:50;10.15;;;4.57;;
6348;SDS011;3207;42.648;23.406;2023-07-20T11:24:19;4.05;;;3.65;;
6348;SDS011;3207;42.648;23.406;2023-07-20T11:26:47;5.03;;;4.30;;
6348;SDS011;3207;42.648;23.406;2023-07-20T11:29:15;4.82;;;4.38;;
6348;SDS011;3207;42.648;23.406;2023-07-20T11:31:47;7.57;;;4.63;;
6348;SDS011;3207;42.648;23.406;2023-07-20T11:34:15;5.28;;;4.38;;
6348;SDS011;3207;42.648;23.406;2023-07-20T11:36:43;5.00;;;3.90;;
6348;SDS011;3207;42.648;23.406;2023-07-20T11:39:11;4.10;;;3.63;;
6348;SDS011;3207;42.648;23.406;2023-07-20T11:41:43;4.80;;;4.40;;
6348;SDS011;3207;42.648;23.406;2023-07-20T11:44:11;4.10;;;3.80;;
6348;SDS011;3207;42.648;23.406;2023-07-20T11:46:40;6.22;;;4.18;;
6348;SDS011;3207;42.648;23.406;2023-07-20T11:49:07;4.65;;;3.80;;
6348;SDS011;3207;42.648;23.406;2023-07-20T11:51:35;5.97;;;4.35;;
6348;SDS011;3207;42.648;23.406;2023-07-20T11:54:03;5.30;;;4.25;;
6348;SDS011;3207;42.648;23.406;2023-07-20T11:56:31;4.68;;;4.28;;
6348;SDS011;3207;42.648;23.406;2023-07-20T11:59:00;4.85;;;4.38;;
6348;SDS011;3207;42.648;23.406;2023-07-20T12:01:28;5.25;;;4.07;;
6348;SDS011;3207;42.648;23.406;2023-07-20T12:03:57;4.72;;;4.22;;
6348;SDS011;3207;42.648;23.406;2023-07-20T12:06:24;5.18;;;4.28;;
6348;SDS011;3207;42.648;23.406;2023-07-20T12:08:56;4.90;;;4.18;;
6348;SDS011;3207;42.648;23.406;2023-07-20T12:11:30;6.50;;;4.05;;
6348;SDS011;3207;42.648;23.406;2023-07-20T12:13:59;4.55;;;4.00;;
6348;SDS011;3207;42.648;23.406;2023-07-20T12:16:27;5.25;;;3.92;;
6348;SDS011;3207;42.648;23.406;2023-07-20T12:18:59;5.30;;;4.80;;
6348;SDS011;3207;42.648;23.406;2023-07-20T12:21:28;6.80;;;4.63;;
6348;SDS011;3207;42.648;23.406;2023-07-20T12:23:55;5.35;;;4.25;;
6348;SDS011;3207;42.648;23.406;2023-07-20T12:26:23;5.05;;;4.32;;
6348;SDS011;3207;42.648;23.406;2023-07-20T12:28:51;5.40;;;4.43;;
6348;SDS011;3207;42.648;23.406;2023-07-20T12:31:19;4.72;;;4.32;;
6348;SDS011;3207;42.648;23.406;2023-07-20T12:33:46;5.75;;;4.53;;
6348;SDS011;3207;42.648;23.406;2023-07-20T12:36:13;6.93;;;4.78;;
6348;SDS011;3207;42.648;23.406;2023-07-20T12:38:40;5.88;;;4.40;;
6348;SDS011;3207;42.648;23.406;2023-07-20T12:41:09;5.15;;;4.53;;
6348;SDS011;3207;42.648;23.406;2023-07-20T12:43:38;4.90;;;4.40;;
6348;SDS011;3207;42.648;23.406;2023-07-20T12:46:05;6.97;;;4.72;;
6348;SDS011;3207;42.648;23.406;2023-07-20T12:48:33;4.57;;;4.18;;
6348;SDS011;3207;42.648;23.406;2023-07-20T12:51:02;6.30;;;4.28;;
6348;SDS011;3207;42.648;23.406;2023-07-20T12:53:29;4.75;;;4.13;;
6348;SDS011;3207;42.648;23.406;2023-07-20T12:55:58;4.32;;;3.85;;
6348;SDS011;3207;42.648;23.406;2023-07-20T12:58:25;5.60;;;4.60;;
6348;SDS011;3207;42.648;23.406;2023-07-20T13:00:52;4.95;;;4.55;;
6348;SDS011;3207;42.648;23.406;2023-07-20T13:03:19;4.93;;;4.40;;
6348;SDS011;3207;42.648;23.406;2023-07-20T13:05:47;4.90;;;4.50;;
6348;SDS011;3207;42.648;23.406;2023-07-20T13:08:14;5.20;;;4.25;;
6348;SDS011;3207;42.648;23.406;2023-07-20T13:10:41;7.95;;;4.78;;
6348;SDS011;3207;42.648;23.406;2023-07-20T13:13:09;4.68;;;4.18;;
6348;SDS011;3207;42.648;23.406;2023-07-20T13:15:40;9.98;;;4.55;;
6348;SDS011;3207;42.648;23.406;2023-07-20T13:18:08;3.90;;;3.60;;
6348;SDS011;3207;42.648;23.406;2023-07-20T13:20:35;5.00;;;4.60;;
6348;SDS011;3207;42.648;23.406;2023-07-20T13:23:03;5.80;;;4.40;;
6348;SDS011;3207;42.648;23.406;2023-07-20T13:25:30;5.45;;;4.43;;
6348;SDS011;3207;42.648;23.406;2023-07-20T13:27:57;5.30;;;4.60;;
6348;SDS011;3207;42.648;23.406;2023-07-20T13:30:24;5.82;;;4.38;;
6348;SDS011;3207;42.648;23.406;2023-07-20T13:32:51;4.30;;;3.45;;
6348;SDS011;3207;42.648;23.406;2023-07-20T13:35:18;5.45;;;4.43;;
6348;SDS011;3207;42.648;23.406;2023-07-20T13:37:44;4.90;;;4.40;;
6348;SDS011;3207;42.648;23.406;2023-07-20T13:40:14;4.43;;;3.97;;
6348;SDS011;3207;42.648;23.406;2023-07-20T13:42:43;5.35;;;4.43;;
6348;SDS011;3207;42.648;23.406;2023-07-20T13:45:10;6.07;;;4.57;;
6348;SDS011;3207;42.648;23.406;2023-07-20T13:47:37;4.18;;;3.80;;
6348;SDS011;3207;42.648;23.406;2023-07-20T13:50:04;4.97;;;3.85;;
6348;SDS011;3207;42.648;23.406;2023-07-20T13:52:31;5.95;;;3.78;;
6348;SDS011;3207;42.648;23.406;2023-07-20T13:54:58;5.00;;;4.50;;
6348;SDS011;3207;42.648;23.406;2023-07-20T13:57:26;4.32;;;3.90;;
6348;SDS011;3207;42.648;23.406;2023-07-20T13:59:53;4.95;;;4.00;;
6348;SDS011;3207;42.648;23.406;2023-07-20T14:02:20;5.20;;;4.13;;
6348;SDS011;3207;42.648;23.406;2023-07-20T14:04:47;4.32;;;3.85;;
6348;SDS011;3207;42.648;23.406;2023-07-20T14:07:14;4.68;;;4.28;;
6348;SDS011;3207;42.648;23.406;2023-07-20T14:09:41;6.03;;;4.85;;
6348;SDS011;3207;42.648;23.406;2023-07-20T14:12:08;4.38;;;3.97;;
6348;SDS011;3207;42.648;23.406;2023-07-20T14:14:38;5.22;;;4.50;;
6348;SDS011;3207;42.648;23.406;2023-07-20T14:17:06;7.68;;;4.32;;
6348;SDS011;3207;42.648;23.406;2023-07-20T14:19:32;6.07;;;4.82;;
6348;SDS011;3207;42.648;23.406;2023-07-20T14:21:59;4.78;;;4.38;;
6348;SDS011;3207;42.648;23.406;2023-07-20T14:24:26;4.85;;;4.35;;
6348;SDS011;3207;42.648;23.406;2023-07-20T14:26:53;4.28;;;3.88;;
6348;SDS011;3207;42.648;23.406;2023-07-20T14:29:20;6.15;;;4.63;;
6348;SDS011;3207;42.648;23.406;2023-07-20T14:31:49;5.03;;;4.50;;
6348;SDS011;3207;42.648;23.406;2023-07-20T14:34:17;6.22;;;5.20;;
6348;SDS011;3207;42.648;23.406;2023-07-20T14:36:44;5.32;;;4.82;;
6348;SDS011;3207;42.648;23.406;2023-07-20T14:39:11;7.70;;;5.00;;
6348;SDS011;3207;42.648;23.406;2023-07-20T14:41:38;5.90;;;4.20;;
6348;SDS011;3207;42.648;23.406;2023-07-20T14:44:04;5.07;;;4.57;;
6348;SDS011;3207;42.648;23.406;2023-07-20T14:46:31;6.28;;;4.43;;
6348;SDS011;3207;42.648;23.406;2023-07-20T14:48:59;4.68;;;4.25;;
6348;SDS011;3207;42.648;23.406;2023-07-20T14:51:27;5.18;;;4.68;;
6348;SDS011;3207;42.648;23.406;2023-07-20T14:53:58;5.18;;;4.68;;
6348;SDS011;3207;42.648;23.406;2023-07-20T14:56:25;5.60;;;4.20;;
6348;SDS011;3207;42.648;23.406;2023-07-20T14:58:52;4.70;;;4.30;;
6348;SDS011;3207;42.648;23.406;2023-07-20T15:01:19;7.25;;;4.32;;
6348;SDS011;3207;42.648;23.406;2023-07-20T15:03:46;6.63;;;4.60;;
6348;SDS011;3207;42.648;23.406;2023-07-20T15:06:16;5.88;;;4.60;;
6348;SDS011;3207;42.648;23.406;2023-07-20T15:08:43;5.28;;;4.78;;
6348;SDS011;3207;42.648;23.406;2023-07-20T15:11:10;5.07;;;4.68;;
6348;SDS011;3207;42.648;23.406;2023-07-20T15:13:37;4.90;;;4.35;;
6348;SDS011;3207;42.648;23.406;2023-07-20T15:16:04;5.13;;;4.63;;